createdAt,value
2019-05-28T00:00:33.763Z,99862.04
2019-05-28T00:03:07.140Z,99861.34
2019-05-28T00:05:40.138Z,99854.91
2019-05-28T00:08:13.025Z,99857.45
2019-05-28T00:10:45.595Z,99857.18
2019-05-28T00:13:18.266Z,99853.20
2019-05-28T00:15:50.680Z,99853.85
2019-05-28T00:18:23.375Z,99848.37
2019-05-28T00:20:56.035Z,99844.03
2019-05-28T00:23:28.920Z,99844.03
2019-05-28T00:26:01.320Z,99834.62
2019-05-28T00:28:33.971Z,99840.73
2019-05-28T00:31:06.945Z,99833.63
2019-05-28T00:33:39.753Z,99825.02
2019-05-28T00:36:12.238Z,99812.92
2019-05-28T00:38:44.785Z,99814.25
2019-05-28T00:41:18.525Z,99805.22
2019-05-28T00:43:51.110Z,99800.88
2019-05-28T00:46:23.720Z,99799.07
2019-05-28T00:48:56.347Z,99796.22
2019-05-28T00:51:29.396Z,99792.11
2019-05-28T00:54:02.260Z,99786.92
2019-05-28T00:56:36.005Z,99781.29
2019-05-28T00:59:08.814Z,99782.77
2019-05-28T01:01:41.240Z,99780.13
2019-05-28T01:04:13.666Z,99781.40
2019-05-28T01:06:46.219Z,99785.38
2019-05-28T01:09:19.831Z,99786.35
2019-05-28T01:11:52.226Z,99792.34
2019-05-28T01:14:24.665Z,99793.50
2019-05-28T01:16:58.455Z,99795.37
2019-05-28T01:19:32.270Z,99796.44
2019-05-28T01:22:06.060Z,99799.73
2019-05-28T01:24:40.210Z,99791.92
2019-05-28T01:27:13.470Z,99794.23
2019-05-28T01:29:45.912Z,99795.50
2019-05-28T01:32:19.715Z,99791.08
2019-05-28T01:34:52.320Z,99790.75
2019-05-28T01:37:24.790Z,99787.77
2019-05-28T01:39:57.365Z,99781.48
2019-05-28T01:42:29.840Z,99782.32
2019-05-28T01:45:02.455Z,99784.66
2019-05-28T01:47:36.284Z,99780.75
2019-05-28T01:50:09.721Z,99782.77
2019-05-28T01:52:43.518Z,99772.22
2019-05-28T01:55:16.945Z,99771.10
2019-05-28T01:57:49.771Z,99769.31
2019-05-28T02:00:22.240Z,99768.98
2019-05-28T02:02:54.958Z,99762.48
2019-05-28T02:05:27.360Z,99764.65
2019-05-28T02:07:59.776Z,99760.42
2019-05-28T02:10:32.315Z,99761.47
2019-05-28T02:13:05.263Z,99756.11
2019-05-28T02:15:37.750Z,99757.75
2019-05-28T02:18:10.251Z,99750.97
2019-05-28T02:20:43.225Z,99755.09
2019-05-28T02:23:15.663Z,99748.11
2019-05-28T02:25:48.308Z,99748.64
2019-05-28T02:28:21.106Z,99745.36
2019-05-28T02:30:53.876Z,99745.84
2019-05-28T02:33:26.474Z,99737.66
2019-05-28T02:35:58.987Z,99740.73
2019-05-28T02:38:31.426Z,99740.84
2019-05-28T02:41:04.180Z,99741.63
2019-05-28T02:43:37.103Z,99737.95
2019-05-28T02:46:09.695Z,99740.24
2019-05-28T02:48:42.355Z,99737.95
2019-05-28T02:51:15.445Z,99736.95
2019-05-28T02:53:47.995Z,99731.96
2019-05-28T02:56:20.961Z,99734.55
2019-05-28T02:58:55.700Z,99734.98
2019-05-28T03:01:42.951Z,99735.77
2019-05-28T03:04:05.405Z,99734.80
2019-05-28T03:06:40.140Z,99732.16
2019-05-28T03:09:12.677Z,99726.86
2019-05-28T03:11:45.196Z,99730.89
2019-05-28T03:14:17.870Z,99732.11
2019-05-28T03:16:52.960Z,99738.34
2019-05-28T03:19:27.157Z,99735.44
2019-05-28T03:22:01.720Z,99738.62
2019-05-28T03:24:36.809Z,99740.63
2019-05-28T03:27:09.387Z,99738.67
2019-05-28T03:29:41.990Z,99729.91
2019-05-28T03:32:14.516Z,99736.33
2019-05-28T03:34:47.056Z,99732.15
2019-05-28T03:37:21.490Z,99734.27
2019-05-28T03:39:56.440Z,99734.80
2019-05-28T03:42:28.840Z,99735.00
2019-05-28T03:45:01.353Z,99727.26
2019-05-28T03:47:33.780Z,99720.11
2019-05-28T03:50:08.526Z,99721.98
2019-05-28T03:52:41.196Z,99715.97
2019-05-28T03:55:13.919Z,99715.60
2019-05-28T03:57:46.357Z,99719.89
2019-05-28T04:00:19.471Z,99715.22
2019-05-28T04:02:52.625Z,99710.56
2019-05-28T04:05:25.265Z,99703.60
2019-05-28T04:07:57.955Z,99708.34
2019-05-28T04:10:30.405Z,99696.23
2019-05-28T04:13:02.913Z,99694.70
2019-05-28T04:15:35.961Z,99697.41
2019-05-28T04:18:08.489Z,99694.33
2019-05-28T04:20:41.005Z,99698.30
2019-05-28T04:23:17.259Z,99694.81
2019-05-28T04:25:49.710Z,99685.48
2019-05-28T04:28:22.405Z,99687.92
2019-05-28T04:30:54.835Z,99685.91
2019-05-28T04:33:27.312Z,99686.32
2019-05-28T04:35:59.880Z,99686.70
2019-05-28T04:38:32.471Z,99683.95
2019-05-28T04:41:05.101Z,99691.48
2019-05-28T04:43:37.620Z,99693.55
2019-05-28T04:46:10.055Z,99688.13
2019-05-28T04:48:42.500Z,99688.66
2019-05-28T04:51:15.052Z,99685.90
2019-05-28T04:53:48.660Z,99682.28
2019-05-28T04:56:21.230Z,99679.31
2019-05-28T04:58:54.731Z,99680.36
2019-05-28T05:01:27.232Z,99682.89
2019-05-28T05:04:01.010Z,99675.27
2019-05-28T05:06:33.638Z,99671.97
2019-05-28T05:09:08.155Z,99673.34
2019-05-28T05:11:41.035Z,99670.11
2019-05-28T05:14:13.566Z,99671.28
2019-05-28T05:16:46.246Z,99666.14
2019-05-28T05:19:18.750Z,99666.34
2019-05-28T05:21:51.417Z,99664.73
2019-05-28T05:24:24.075Z,99662.56
2019-05-28T05:26:56.650Z,99662.08
2019-05-28T05:29:29.025Z,99662.08
2019-05-28T05:32:01.856Z,99665.09
2019-05-28T05:34:34.370Z,99660.47
2019-05-28T05:37:07.115Z,99650.41
2019-05-28T05:39:39.785Z,99652.58
2019-05-28T05:42:12.500Z,99658.27
2019-05-28T05:44:45.005Z,99657.66
2019-05-28T05:47:17.550Z,99661.52
2019-05-28T05:49:49.941Z,99657.63
2019-05-28T05:52:22.910Z,99653.72
2019-05-28T05:54:55.516Z,99659.13
2019-05-28T05:57:28.038Z,99645.14
2019-05-28T06:00:00.446Z,99648.83
2019-05-28T06:02:33.094Z,99647.66
2019-05-28T06:05:07.040Z,99645.55
2019-05-28T06:07:39.706Z,99643.57
2019-05-28T06:10:12.427Z,99644.23
2019-05-28T06:12:45.580Z,99648.73
2019-05-28T06:15:19.525Z,99659.22
2019-05-28T06:17:52.086Z,99657.22
2019-05-28T06:20:24.541Z,99651.91
2019-05-28T06:22:56.946Z,99645.42
2019-05-28T06:25:29.899Z,99647.27
2019-05-28T06:28:02.415Z,99649.75
2019-05-28T06:30:34.910Z,99650.06
2019-05-28T06:33:07.555Z,99652.08
2019-05-28T06:35:40.135Z,99654.41
2019-05-28T06:38:12.605Z,99655.03
2019-05-28T06:40:44.945Z,99656.70
2019-05-28T06:43:17.445Z,99653.84
2019-05-28T06:45:49.920Z,99658.87
2019-05-28T06:48:22.432Z,99675.03
2019-05-28T06:50:54.956Z,99677.02
2019-05-28T06:53:27.238Z,99678.89
2019-05-28T06:55:59.791Z,99678.21
2019-05-28T06:58:39.425Z,99677.24
2019-05-28T07:01:06.555Z,99670.91
2019-05-28T07:03:39.210Z,99662.44
2019-05-28T07:06:11.776Z,99658.11
2019-05-28T07:08:44.495Z,99664.56
2019-05-28T07:11:17.100Z,99661.91
2019-05-28T07:13:49.510Z,99659.56
2019-05-28T07:16:22.165Z,99664.22
2019-05-28T07:18:54.580Z,99671.88
2019-05-28T07:21:27.125Z,99665.73
2019-05-28T07:23:59.510Z,99673.71
2019-05-28T07:26:32.251Z,99669.55
2019-05-28T07:29:04.735Z,99666.09
2019-05-28T07:31:37.564Z,99663.57
2019-05-28T07:34:10.345Z,99666.39
2019-05-28T07:36:42.965Z,99662.67
2019-05-28T07:39:16.390Z,99671.28
2019-05-28T07:41:48.835Z,99673.91
2019-05-28T07:44:21.465Z,99664.12
2019-05-28T07:46:54.220Z,99663.97
2019-05-28T07:49:26.686Z,99663.80
2019-05-28T07:51:59.153Z,99658.83
2019-05-28T07:54:31.755Z,99663.16
2019-05-28T07:57:04.325Z,99665.63
2019-05-28T07:59:36.820Z,99670.70
2019-05-28T08:02:09.581Z,99675.16
2019-05-28T08:04:47.164Z,99683.34
2019-05-28T08:07:17.045Z,99683.83
2019-05-28T08:09:49.760Z,99676.84
2019-05-28T08:12:23.256Z,99674.83
2019-05-28T08:14:55.790Z,99683.13
2019-05-28T08:17:28.695Z,99677.97
2019-05-28T08:20:01.362Z,99678.67
2019-05-28T08:22:42.444Z,99678.89
2019-05-28T08:25:27.238Z,99682.05
2019-05-28T08:27:43.655Z,99688.05
2019-05-28T08:30:16.325Z,99679.65
2019-05-28T08:32:49.031Z,99679.16
2019-05-28T08:35:21.495Z,99678.45
2019-05-28T08:37:54.220Z,99682.67
2019-05-28T08:40:27.070Z,99687.61
2019-05-28T08:43:00.034Z,99688.50
2019-05-28T08:45:32.700Z,99692.33
2019-05-28T08:48:05.402Z,99689.31
2019-05-28T08:50:37.768Z,99689.31
2019-05-28T08:53:10.505Z,99688.42
2019-05-28T08:55:43.118Z,99690.27
2019-05-28T08:58:15.581Z,99697.28
2019-05-28T09:00:48.271Z,99695.03
2019-05-28T09:03:20.865Z,99689.38
2019-05-28T09:05:53.499Z,99687.76
2019-05-28T09:08:38.375Z,99693.78
2019-05-28T09:11:00.230Z,99695.79
2019-05-28T09:13:32.915Z,99695.95
2019-05-28T09:16:05.381Z,99699.80
2019-05-28T09:18:37.920Z,99699.34
2019-05-28T09:21:10.502Z,99704.16
2019-05-28T09:23:43.191Z,99702.48
2019-05-28T09:26:15.640Z,99711.46
2019-05-28T09:28:48.383Z,99717.41
2019-05-28T09:31:20.662Z,99718.27
2019-05-28T09:33:52.985Z,99722.89
2019-05-28T09:36:25.460Z,99726.03
2019-05-28T09:38:58.030Z,99719.22
2019-05-28T09:41:30.705Z,99724.17
2019-05-28T09:44:03.586Z,99717.67
2019-05-28T09:46:36.175Z,99723.50
2019-05-28T09:49:08.805Z,99722.80
2019-05-28T09:51:41.230Z,99717.47
2019-05-28T09:54:13.820Z,99719.00
2019-05-28T09:56:46.591Z,99722.71
2019-05-28T09:59:19.390Z,99716.64
2019-05-28T10:01:52.190Z,99721.20
2019-05-28T10:04:44.258Z,99719.80
2019-05-28T10:06:59.429Z,99720.79
2019-05-28T10:09:32.552Z,99715.61
2019-05-28T10:12:05.215Z,99722.77
2019-05-28T10:14:37.905Z,99727.36
2019-05-28T10:17:10.545Z,99721.51
2019-05-28T10:19:43.301Z,99722.16
2019-05-28T10:22:15.745Z,99720.57
2019-05-28T10:24:48.405Z,99719.69
2019-05-28T10:27:20.690Z,99721.24
2019-05-28T10:29:53.103Z,99723.73
2019-05-28T10:32:25.770Z,99723.91
2019-05-28T10:35:03.901Z,99723.73
2019-05-28T10:37:32.390Z,99735.65
2019-05-28T10:40:08.036Z,99730.68
2019-05-28T10:42:41.195Z,99742.15
2019-05-28T10:45:14.086Z,99743.16
2019-05-28T10:47:46.785Z,99742.56
2019-05-28T10:50:19.547Z,99745.25
2019-05-28T10:52:51.982Z,99739.75
2019-05-28T10:55:24.455Z,99752.58
2019-05-28T10:57:56.776Z,99749.97
2019-05-28T11:00:29.456Z,99754.31
2019-05-28T11:03:02.256Z,99757.30
2019-05-28T11:05:34.658Z,99750.98
2019-05-28T11:08:07.036Z,99756.16
2019-05-28T11:10:39.395Z,99757.97
2019-05-28T11:13:11.756Z,99753.38
2019-05-28T11:15:45.355Z,99760.53
2019-05-28T11:18:17.680Z,99755.30
2019-05-28T11:20:50.115Z,99757.69
2019-05-28T11:23:22.596Z,99750.93
2019-05-28T11:25:54.916Z,99760.84
2019-05-28T11:28:27.195Z,99764.83
2019-05-28T11:31:00.635Z,99760.99
2019-05-28T11:33:33.007Z,99761.47
2019-05-28T11:36:05.637Z,99758.82
2019-05-28T11:38:37.918Z,99755.28
2019-05-28T11:41:10.456Z,99750.26
2019-05-28T11:43:42.735Z,99745.30
2019-05-28T11:46:15.155Z,99748.66
2019-05-28T11:48:47.556Z,99750.16
2019-05-28T11:51:20.008Z,99752.61
2019-05-28T11:53:52.356Z,99750.37
2019-05-28T11:56:24.796Z,99756.41
2019-05-28T11:58:57.137Z,99754.57
2019-05-28T12:01:35.020Z,99746.42
2019-05-28T12:04:04.857Z,99748.20
2019-05-28T12:06:38.309Z,99750.83
2019-05-28T12:09:11.036Z,99756.84
2019-05-28T12:11:43.460Z,99754.49
2019-05-28T12:14:16.036Z,99759.81
2019-05-28T12:16:48.416Z,99761.00
2019-05-28T12:19:20.842Z,99760.11
2019-05-28T12:21:53.138Z,99756.97
2019-05-28T12:24:28.291Z,99760.11
2019-05-28T12:26:59.461Z,99764.55
2019-05-28T12:29:31.796Z,99763.91
2019-05-28T12:32:06.934Z,99773.12
2019-05-28T12:34:38.475Z,99775.23
2019-05-28T12:37:10.896Z,99774.53
2019-05-28T12:39:43.486Z,99770.84
2019-05-28T12:42:15.915Z,99770.31
2019-05-28T12:44:48.356Z,99778.68
2019-05-28T12:47:20.656Z,99770.54
2019-05-28T12:49:53.040Z,99774.20
2019-05-28T12:52:25.376Z,99779.71
2019-05-28T12:54:57.695Z,99775.61
2019-05-28T12:57:30.101Z,99780.14
2019-05-28T13:00:02.529Z,99779.64
2019-05-28T13:02:35.400Z,99784.39
2019-05-28T13:05:14.136Z,99786.34
2019-05-28T13:08:05.760Z,99787.20
2019-05-28T13:10:21.055Z,99785.53
2019-05-28T13:12:53.357Z,99781.11
2019-05-28T13:15:25.975Z,99778.61
2019-05-28T13:17:58.338Z,99781.29
2019-05-28T13:20:30.731Z,99780.28
2019-05-28T13:23:06.796Z,99785.00
2019-05-28T13:25:39.175Z,99784.33
2019-05-28T13:28:11.455Z,99785.08
2019-05-28T13:30:43.819Z,99787.27
2019-05-28T13:33:16.050Z,99784.27
2019-05-28T13:35:48.635Z,99790.79
2019-05-28T13:38:26.930Z,99789.13
2019-05-28T13:40:54.956Z,99786.25
2019-05-28T13:43:27.349Z,99789.20
2019-05-28T13:45:59.757Z,99797.07
2019-05-28T13:48:32.215Z,99792.38
2019-05-28T13:51:05.435Z,99792.38
2019-05-28T13:53:39.060Z,99801.02
2019-05-28T13:56:11.676Z,99799.71
2019-05-28T13:58:44.109Z,99802.11
2019-05-28T14:01:16.637Z,99799.15
2019-05-28T14:03:49.115Z,99798.16
2019-05-28T14:06:21.369Z,99798.20
2019-05-28T14:08:53.817Z,99802.13
2019-05-28T14:11:26.737Z,99802.18
2019-05-28T14:13:59.177Z,99808.53
2019-05-28T14:16:31.479Z,99813.11
2019-05-28T14:19:03.878Z,99811.94
2019-05-28T14:21:36.340Z,99806.13
2019-05-28T14:24:08.623Z,99816.85
2019-05-28T14:26:41.015Z,99817.09
2019-05-28T14:29:13.718Z,99813.00
2019-05-28T14:31:46.021Z,99814.09
2019-05-28T14:34:18.436Z,99815.20
2019-05-28T14:36:50.695Z,99819.06
2019-05-28T14:39:37.962Z,99825.37
2019-05-28T14:41:57.950Z,99826.47
2019-05-28T14:44:31.030Z,99827.48
2019-05-28T14:47:03.491Z,99828.91
2019-05-28T14:49:35.891Z,99838.76
2019-05-28T14:52:08.159Z,99832.34
2019-05-28T14:54:40.552Z,99837.07
2019-05-28T14:57:13.137Z,99835.38
2019-05-28T14:59:45.815Z,99838.87
2019-05-28T15:02:18.733Z,99841.57
2019-05-28T15:04:51.614Z,99843.02
2019-05-28T15:07:24.369Z,99848.77
2019-05-28T15:09:57.211Z,99853.49
2019-05-28T15:12:29.641Z,99848.75
2019-05-28T15:15:02.741Z,99858.26
2019-05-28T15:17:35.449Z,99858.47
2019-05-28T15:20:09.093Z,99854.38
2019-05-28T15:22:43.191Z,99860.53
2019-05-28T15:25:17.210Z,99869.23
2019-05-28T15:27:49.660Z,99867.22
2019-05-28T15:30:22.699Z,99868.75
2019-05-28T15:32:55.231Z,99872.56
2019-05-28T15:35:27.805Z,99866.81
2019-05-28T15:38:00.326Z,99874.22
2019-05-28T15:40:33.205Z,99869.94
2019-05-28T15:43:06.887Z,99872.45
2019-05-28T15:45:39.601Z,99877.45
2019-05-28T15:48:12.356Z,99881.06
2019-05-28T15:50:45.057Z,99886.13
2019-05-28T15:53:17.575Z,99874.67
2019-05-28T15:55:50.200Z,99879.92
2019-05-28T15:58:23.231Z,99886.75
2019-05-28T16:00:55.931Z,99883.02
2019-05-28T16:03:28.575Z,99894.31
2019-05-28T16:06:01.278Z,99896.81
2019-05-28T16:08:34.021Z,99899.70
2019-05-28T16:11:06.460Z,99899.70
2019-05-28T16:13:38.872Z,99900.20
2019-05-28T16:16:11.596Z,99893.11
2019-05-28T16:18:44.306Z,99897.58
2019-05-28T16:21:17.010Z,99894.08
2019-05-28T16:23:49.525Z,99902.84
2019-05-28T16:26:22.422Z,99906.41
2019-05-28T16:28:54.945Z,99907.98
2019-05-28T16:31:27.650Z,99913.61
2019-05-28T16:34:00.245Z,99916.19
2019-05-28T16:36:33.215Z,99918.84
2019-05-28T16:39:08.991Z,99925.34
2019-05-28T16:41:41.631Z,99921.85
2019-05-28T16:44:14.175Z,99938.27
2019-05-28T16:46:46.770Z,99935.45
2019-05-28T16:49:19.483Z,99943.13
2019-05-28T16:51:51.916Z,99946.58
2019-05-28T16:54:24.651Z,99956.95
2019-05-28T16:56:57.631Z,99961.79
2019-05-28T16:59:30.375Z,99970.00
2019-05-28T17:02:02.931Z,99970.44
2019-05-28T17:04:35.530Z,99977.89
2019-05-28T17:07:08.045Z,99976.52
2019-05-28T17:09:40.907Z,99986.91
2019-05-28T17:12:13.396Z,99993.62
2019-05-28T17:14:45.920Z,99993.75
2019-05-28T17:17:18.387Z,99992.33
2019-05-28T17:19:51.006Z,100008.10
2019-05-28T17:22:23.591Z,99999.80
2019-05-28T17:24:56.227Z,100009.56
2019-05-28T17:27:28.893Z,100013.43
2019-05-28T17:30:17.340Z,100009.13
2019-05-28T17:32:36.936Z,100018.24
2019-05-28T17:35:10.346Z,100016.34
2019-05-28T17:37:42.866Z,100024.75
2019-05-28T17:40:21.987Z,100025.84
2019-05-28T17:42:52.349Z,100026.84
2019-05-28T17:45:25.527Z,100027.19
2019-05-28T17:47:58.549Z,100032.61
2019-05-28T17:50:31.174Z,100032.74
2019-05-28T17:53:03.593Z,100040.30
2019-05-28T17:55:36.438Z,100043.98
2019-05-28T17:58:09.230Z,100050.21
2019-05-28T18:00:42.893Z,100053.25
2019-05-28T18:03:15.315Z,100055.31
2019-05-28T18:05:48.005Z,100056.02
2019-05-28T18:08:20.815Z,100052.19
2019-05-28T18:11:03.718Z,100061.32
2019-05-28T18:13:28.553Z,100056.41
2019-05-28T18:16:01.391Z,100070.36
2019-05-28T18:18:33.919Z,100063.64
2019-05-28T18:21:06.526Z,100065.44
2019-05-28T18:23:39.204Z,100069.27
2019-05-28T18:26:11.945Z,100068.92
2019-05-28T18:28:44.590Z,100072.64
2019-05-28T18:31:17.357Z,100075.78
2019-05-28T18:33:49.817Z,100079.98
2019-05-28T18:36:22.305Z,100084.20
2019-05-28T18:38:54.841Z,100086.61
2019-05-28T18:41:28.020Z,100089.98
2019-05-28T18:44:01.533Z,100094.88
2019-05-28T18:46:34.691Z,100095.52
2019-05-28T18:49:07.395Z,100095.27
2019-05-28T18:51:40.051Z,100096.81
2019-05-28T18:54:12.507Z,100104.52
2019-05-28T18:56:45.066Z,100113.03
2019-05-28T18:59:17.688Z,100117.47
2019-05-28T19:01:50.405Z,100113.52
2019-05-28T19:04:23.236Z,100118.20
2019-05-28T19:06:55.696Z,100126.84
2019-05-28T19:09:28.360Z,100129.83
2019-05-28T19:12:01.046Z,100130.93
2019-05-28T19:14:33.991Z,100138.25
2019-05-28T19:17:06.981Z,100146.86
2019-05-28T19:19:40.709Z,100148.91
2019-05-28T19:22:13.466Z,100157.03
2019-05-28T19:24:46.170Z,100157.97
2019-05-28T19:27:18.606Z,100160.86
2019-05-28T19:29:51.196Z,100160.61
2019-05-28T19:32:23.746Z,100161.83
2019-05-28T19:34:56.930Z,100160.25
2019-05-28T19:37:29.660Z,100164.55
2019-05-28T19:40:02.435Z,100173.43
2019-05-28T19:42:35.157Z,100170.92
2019-05-28T19:45:11.110Z,100180.74
2019-05-28T19:47:43.990Z,100181.45
2019-05-28T19:50:16.868Z,100187.33
2019-05-28T19:52:49.469Z,100190.43
2019-05-28T19:55:21.985Z,100196.30
2019-05-28T19:57:54.307Z,100194.25
2019-05-28T20:00:27.772Z,100205.18
2019-05-28T20:03:00.925Z,100203.48
2019-05-28T20:05:33.578Z,100200.11
2019-05-28T20:08:06.225Z,100206.70
2019-05-28T20:10:39.135Z,100208.62
2019-05-28T20:13:12.643Z,100203.84
2019-05-28T20:15:45.435Z,100208.62
2019-05-28T20:18:26.202Z,100212.69
2019-05-28T20:20:52.260Z,100215.80
2019-05-28T20:23:24.841Z,100216.18
2019-05-28T20:25:57.432Z,100214.74
2019-05-28T20:28:30.103Z,100222.66
2019-05-28T20:31:03.688Z,100234.05
2019-05-28T20:33:36.571Z,100233.55
2019-05-28T20:36:10.025Z,100238.01
2019-05-28T20:38:42.735Z,100243.48
2019-05-28T20:41:15.576Z,100251.52
2019-05-28T20:43:48.235Z,100253.30
2019-05-28T20:46:20.825Z,100254.03
2019-05-28T20:48:53.800Z,100251.05
2019-05-28T20:51:26.510Z,100247.83
2019-05-28T20:53:59.055Z,100249.94
2019-05-28T20:56:31.573Z,100254.13
2019-05-28T20:59:04.195Z,100256.16
2019-05-28T21:01:37.240Z,100258.80
2019-05-28T21:04:09.743Z,100270.66
2019-05-28T21:06:43.476Z,100271.59
2019-05-28T21:09:16.080Z,100273.41
2019-05-28T21:11:48.729Z,100275.67
2019-05-28T21:14:21.306Z,100271.25
2019-05-28T21:16:54.984Z,100272.89
2019-05-28T21:19:27.825Z,100262.70
2019-05-28T21:22:00.590Z,100266.03
2019-05-28T21:24:33.291Z,100272.68
2019-05-28T21:27:06.101Z,100279.62
2019-05-28T21:29:38.751Z,100285.36
2019-05-28T21:32:12.331Z,100288.97
2019-05-28T21:34:44.955Z,100290.40
2019-05-28T21:37:17.565Z,100294.55
2019-05-28T21:39:51.329Z,100294.20
2019-05-28T21:42:23.915Z,100294.40
2019-05-28T21:44:56.415Z,100295.56
2019-05-28T21:47:28.941Z,100297.97
2019-05-28T21:50:02.045Z,100305.41
2019-05-28T21:52:35.786Z,100306.34
2019-05-28T21:55:10.070Z,100305.13
2019-05-28T21:57:42.415Z,100308.93
2019-05-28T22:00:29.700Z,100308.77
2019-05-28T22:03:05.083Z,100308.77
2019-05-28T22:05:37.860Z,100312.57
2019-05-28T22:08:10.480Z,100311.59
2019-05-28T22:10:44.509Z,100318.76
2019-05-28T22:13:22.249Z,100311.44
2019-05-28T22:15:51.156Z,100320.38
2019-05-28T22:18:23.557Z,100322.44
2019-05-28T22:20:56.669Z,100333.55
2019-05-28T22:23:29.311Z,100317.40
2019-05-28T22:26:02.661Z,100327.44
2019-05-28T22:28:35.366Z,100332.93
2019-05-28T22:31:08.173Z,100331.26
2019-05-28T22:33:41.290Z,100329.09
2019-05-28T22:36:13.705Z,100337.92
2019-05-28T22:38:47.901Z,100336.72
2019-05-28T22:41:20.635Z,100343.88
2019-05-28T22:43:53.165Z,100353.48
2019-05-28T22:46:25.700Z,100350.96
2019-05-28T22:48:59.149Z,100350.96
2019-05-28T22:51:31.960Z,100354.91
2019-05-28T22:54:06.069Z,100363.00
2019-05-28T22:56:39.935Z,100371.29
2019-05-28T22:59:12.335Z,100371.29
2019-05-28T23:01:45.291Z,100380.58
2019-05-28T23:04:17.735Z,100378.45
2019-05-28T23:06:50.310Z,100384.61
2019-05-28T23:09:22.954Z,100387.00
2019-05-28T23:11:55.607Z,100397.15
2019-05-28T23:14:30.850Z,100395.20
2019-05-28T23:17:04.178Z,100404.98
2019-05-28T23:19:36.650Z,100404.14
2019-05-28T23:22:09.390Z,100406.63
2019-05-28T23:24:41.930Z,100404.47
2019-05-28T23:27:14.290Z,100408.41
2019-05-28T23:29:46.767Z,100418.78
2019-05-28T23:32:19.485Z,100425.92
2019-05-28T23:34:52.025Z,100419.64
2019-05-28T23:37:24.705Z,100432.34
2019-05-28T23:39:57.645Z,100431.48
2019-05-28T23:42:29.997Z,100433.48
2019-05-28T23:45:03.487Z,100436.11
2019-05-28T23:47:36.311Z,100444.69
2019-05-28T23:50:14.456Z,100450.41
2019-05-28T23:52:44.327Z,100448.95
2019-05-28T23:55:18.110Z,100450.56
2019-05-28T23:57:50.531Z,100452.09
